الصفحة الرئيسية
METAR-TAF:

METAR-TAF

مطار :

Rifle, كولورادو, الولايات المتحدة

Garfield County Regional Airport

دائرة عرض: 39-31-30N, خط طول: 107-43-38W, ارتفاع: 1690 متر

مراقبة الطقس الحالي

تاريخ ووقت الإصدار 1ساعة و 2 دقيقة قبل الساعة 14:53UTC
ريح 3 عقدةمن اتجاهات متغيرة
درجة الحرارة 5°درجة مئوية
الرطوبة 52%
ضغط 1029 hPa
الرؤية: 16.1 كم
سماء صافية

METAR: KRIL 251453Z AUTO VRB03KT 10SM CLR 05/M04 A3039 RMK AO2 SLP274 T00501039 50003

زمن: 09:55 (15:55 UTC)

توقعات

تاريخ ووقت الإصدار 4ساعات و 35 دقيقة قبل الساعة 11:20UTC
التوقعات صالحة من25 الساعة 12 UTC إلى 26 الساعة 12 UTC
ريح عقدة من الشمال
الرؤية: 10 كم
سماء صافية
من 25 الساعة 2200 UTC
ريح 6 عقدة من الغرب
الرؤية: 10 كم
سماء صافية

TAF: KRIL 251120Z 2512/2612 00000KT P6SM SKC FM252200 28006KT P6SM SKC

أرصاد الطقس والتوقعات من أكثر من 4000 مطار (تقارير الطقس للمطار METAR والتنبؤ بالطقس بالمطارTAF).

المحطات المتاحة هي النقط الصفراء والحمراء على الخريطة.

حرك المؤشر فوق النقطة لمعرفة اسم المحطة.

ثم انقر لمعرفة أرصاد وتوقعات الطقس.

لتغيير الخارطة: اضغط على الأزرار الخضراء مع رمز الصليب الأسود للتكبير. على الزر الأخضر مع شرطة للتصغير، أو على الأسهم الخضراء للخرائط المجاورة.


METAR-TAF: